Phivos — SXUU — position and weather

sailwx.info

Track history (hours):
 
Tides and Currents Weather Stations Pressure Air Temp Water Temp Dewpoint Dewpoint Depression Visibility Wind Speed Wind Dir Waves Ship Positions

Phivos

Last reported at 2018-Apr-23 21:01 UTC. Time now 2018-Apr-23 21:25 UTC.
Position N 37°57' E 023°38'.

Length 100 m.

MMSI: 237808200.

Date/timePositionNaut miles runAvg speedWind from/ knotsBaromVisibWave heightAir tempDewpointWater temp
2018-Apr-23 21:01N 37°57' E 023°38'0 0.0
2018-Apr-23 20:31N 37°57' E 023°38'0 0.0
2018-Apr-23 20:00N 37°57' E 023°38'0 0.0
2018-Apr-23 19:31N 37°57' E 023°38'0 0.0
2018-Apr-23 19:00N 37°57' E 023°38'0 0.0
2018-Apr-23 18:31N 37°57' E 023°38'0 0.0
2018-Apr-23 18:00N 37°57' E 023°38'0 0.0
2018-Apr-23 17:30N 37°57' E 023°38'0 0.0
2018-Apr-23 17:01N 37°57' E 023°38'0 0.0
2018-Apr-23 16:30N 37°57' E 023°38'0 0.0
2018-Apr-23 16:01N 37°57' E 023°38'0 0.0
2018-Apr-23 15:31N 37°57' E 023°38'0 0.0
2018-Apr-23 15:00N 37°57' E 023°38'0 0.0
2018-Apr-23 14:30N 37°57' E 023°38'0 0.0
2018-Apr-23 14:00N 37°57' E 023°38'0 0.0
2018-Apr-23 13:30N 37°57' E 023°38'0 0.0
2018-Apr-23 13:00N 37°57' E 023°38'0 0.0
2018-Apr-23 12:30N 37°57' E 023°38'0 0.0
2018-Apr-23 12:00N 37°57' E 023°38'0 0.0
2018-Apr-23 11:30N 37°57' E 023°38'2 4.0
2018-Apr-23 11:01N 37°55' E 023°37'815.2
2018-Apr-23 10:30N 37°49' E 023°30'612.3
2018-Apr-23 10:00N 37°45' E 023°25'0 0.0
2018-Apr-23 09:30N 37°45' E 023°25'1213.2
2018-Apr-23 08:35N 37°54' E 023°35'114.6
2018-Apr-23 08:30N 37°55' E 023°36'2 5.0
2018-Apr-23 08:00N 37°57' E 023°38'0 0.0
2018-Apr-23 07:30N 37°57' E 023°38'3 5.8
2018-Apr-23 07:00N 37°55' E 023°36'815.4
2018-Apr-23 06:30N 37°49' E 023°29'510.3
2018-Apr-23 06:00N 37°45' E 023°25'0 0.6
2018-Apr-23 05:31N 37°45' E 023°25'713.8
2018-Apr-23 05:00N 37°50' E 023°31'815.7
2018-Apr-23 04:31N 37°56' E 023°37'1 2.8
2018-Apr-23 04:00N 37°57' E 023°39'0 0.0
2018-Apr-23 03:30N 37°57' E 023°39'0 0.0
2018-Apr-23 03:00N 37°57' E 023°38'0 0.0
2018-Apr-23 02:30N 37°57' E 023°38'0 0.0
2018-Apr-23 02:00N 37°57' E 023°38'0 0.0
2018-Apr-23 01:30N 37°57' E 023°39'0 0.0
2018-Apr-23 01:00N 37°57' E 023°39'0 0.0
2018-Apr-23 00:30N 37°57' E 023°39'0 0.0
2018-Apr-23 00:00N 37°57' E 023°39'0 0.0
2018-Apr-22 23:30N 37°57' E 023°39'0 0.0
2018-Apr-22 23:00N 37°57' E 023°39'0 0.0
2018-Apr-22 22:30N 37°57' E 023°39'0 0.0
2018-Apr-22 22:00N 37°57' E 023°38'0 0.0
2018-Apr-22 21:30N 37°57' E 023°39'0 0.0
2018-Apr-22 21:00N 37°57' E 023°39'0 0.0
2018-Apr-22 20:30N 37°57' E 023°39'0 0.0
2018-Apr-22 20:00N 37°57' E 023°39'0 0.0
2018-Apr-22 19:30N 37°57' E 023°39'0 0.0
2018-Apr-22 19:00N 37°57' E 023°39'0 0.0
2018-Apr-22 18:30N 37°57' E 023°39'0 0.0
2018-Apr-22 18:00N 37°57' E 023°39'5 9.1
2018-Apr-22 17:30N 37°53' E 023°34'815.5
2018-Apr-22 17:00N 37°48' E 023°28'4 7.3
2018-Apr-22 16:31N 37°45' E 023°25'0 0.0
2018-Apr-22 16:01N 37°45' E 023°25'2 4.2
2018-Apr-22 15:30N 37°47' E 023°26'815.7
2018-Apr-22 15:01N 37°52' E 023°33'612.4
2018-Apr-22 14:30N 37°57' E 023°38'2 3.9
2018-Apr-22 14:01N 37°56' E 023°36'815.6
2018-Apr-22 13:31N 37°50' E 023°30'612.2
2018-Apr-22 13:00N 37°45' E 023°25'0 0.9
2018-Apr-22 12:30N 37°44' E 023°25'1111.7
2018-Apr-22 11:34N 37°33' E 023°24'115.8
2018-Apr-22 11:30N 37°32' E 023°25'2 2.3
2018-Apr-22 10:34N 37°30' E 023°26'114.9
2018-Apr-22 10:30N 37°31' E 023°25'610.8
2018-Apr-22 09:59N 37°37' E 023°25'815.7
2018-Apr-22 09:31N 37°44' E 023°25'3 5.5
2018-Apr-22 09:00N 37°47' E 023°26'815.5
2018-Apr-22 08:31N 37°52' E 023°33'612.7
2018-Apr-22 08:00N 37°57' E 023°38'0 0.0
2018-Apr-22 07:30N 37°57' E 023°38'0 0.0
2018-Apr-22 07:00N 37°57' E 023°38'0 0.0
2018-Apr-22 06:30N 37°57' E 023°38'0 0.0
2018-Apr-22 06:00N 37°57' E 023°38'0 0.0
2018-Apr-22 05:30N 37°57' E 023°38'0 0.0
2018-Apr-22 05:00N 37°57' E 023°38'0 0.0
2018-Apr-22 04:30N 37°57' E 023°38'0 0.0
2018-Apr-22 04:00N 37°57' E 023°38'0 0.0
2018-Apr-22 03:30N 37°57' E 023°38'0 0.0
2018-Apr-22 03:00N 37°57' E 023°38'0 0.0
2018-Apr-22 02:30N 37°57' E 023°38'0 0.0
2018-Apr-22 02:00N 37°57' E 023°38'0 0.0
2018-Apr-22 01:30N 37°57' E 023°38'0 0.0
2018-Apr-22 01:00N 37°57' E 023°38'0 0.0
2018-Apr-22 00:30N 37°57' E 023°38'0 0.0
2018-Apr-22 00:00N 37°57' E 023°38'0 0.0
2018-Apr-21 23:30N 37°57' E 023°38'0 0.0
2018-Apr-21 23:00N 37°57' E 023°38'0 0.0
2018-Apr-21 22:30N 37°57' E 023°38'0 0.0
2018-Apr-21 22:00N 37°57' E 023°38'0 0.0
2018-Apr-21 21:30N 37°57' E 023°38'0 0.0
2018-Apr-21 21:00N 37°57' E 023°38'0 0.0
2018-Apr-21 20:30N 37°57' E 023°38'0 0.0
2018-Apr-21 20:00N 37°57' E 023°38'0 0.0
2018-Apr-21 19:30N 37°57' E 023°38'0 0.0
2018-Apr-21 19:00N 37°57' E 023°38'0 0.0
2018-Apr-21 18:30N 37°57' E 023°38'0 0.0
2018-Apr-21 18:00N 37°57' E 023°38'0 0.0
2018-Apr-21 17:30N 37°57' E 023°38'0 0.0
2018-Apr-21 17:00N 37°57' E 023°38'0 0.0
2018-Apr-21 16:30N 37°57' E 023°38'0 0.0
2018-Apr-21 16:00N 37°57' E 023°38'0 0.0
2018-Apr-21 15:30N 37°57' E 023°38'0 0.0
2018-Apr-21 15:00N 37°57' E 023°38'0 0.0
2018-Apr-21 14:30N 37°57' E 023°38'0 0.0
2018-Apr-21 14:00N 37°57' E 023°38'3 6.3
2018-Apr-21 13:30N 37°54' E 023°36'715.0
2018-Apr-21 13:00N 37°49' E 023°29'510.3
2018-Apr-21 12:30N 37°45' E 023°25'4 7.3
2018-Apr-21 12:00N 37°41' E 023°25'811.8
2018-Apr-21 11:22N 37°33' E 023°24'3 2.4
2018-Apr-21 09:59N 37°30' E 023°26'5 9.3
2018-Apr-21 09:25N 37°36' E 023°25'715.9
2018-Apr-21 09:00N 37°42' E 023°25'3 5.2
2018-Apr-21 08:30N 37°45' E 023°25'612.0
2018-Apr-21 08:00N 37°49' E 023°30'815.8
2018-Apr-21 07:30N 37°55' E 023°37'2 3.9
2018-Apr-21 07:00N 37°57' E 023°38'3 6.8
2018-Apr-21 06:30N 37°54' E 023°36'815.0
2018-Apr-21 06:00N 37°49' E 023°29'5 9.9
2018-Apr-21 05:31N 37°45' E 023°25'5 9.4
2018-Apr-21 05:00N 37°40' E 023°25'6 9.9
2018-Apr-21 04:23N 37°34' E 023°24'4 0.3
2018-Apr-20 17:25N 37°30' E 023°26'6 7.9
2018-Apr-20 16:38N 37°37' E 023°25'215.3
2018-Apr-20 16:29N 37°39' E 023°25'612.5
2018-Apr-20 16:00N 37°45' E 023°25'3 5.1
2018-Apr-20 15:30N 37°47' E 023°27'815.8
2018-Apr-20 15:00N 37°53' E 023°34'611.0
2018-Apr-20 14:30N 37°57' E 023°38'0 0.0
2018-Apr-20 14:00N 37°57' E 023°38'0 0.0
2018-Apr-20 13:30N 37°57' E 023°38'0 0.0
2018-Apr-20 13:00N 37°57' E 023°38'0 0.0
2018-Apr-20 12:30N 37°57' E 023°38'0 0.0
2018-Apr-20 12:00N 37°57' E 023°38'0 0.0
2018-Apr-20 11:30N 37°57' E 023°38'0 0.0
2018-Apr-20 11:00N 37°57' E 023°38'0 0.0
2018-Apr-20 10:30N 37°57' E 023°38'0 0.0
2018-Apr-20 10:00N 37°57' E 023°38'0 0.0
2018-Apr-20 09:30N 37°57' E 023°38'0 0.0
2018-Apr-20 09:00N 37°57' E 023°38'0 0.0
2018-Apr-20 08:30N 37°57' E 023°38'0 0.0
2018-Apr-20 08:00N 37°57' E 023°38'0 0.2
2018-Apr-20 07:30N 37°57' E 023°38'612.0
2018-Apr-20 07:00N 37°52' E 023°33'815.4
2018-Apr-20 06:31N 37°47' E 023°26'2 4.5
2018-Apr-20 06:00N 37°45' E 023°25'2 3.6
2018-Apr-20 05:30N 37°46' E 023°26'815.3
2018-Apr-20 05:00N 37°51' E 023°33'713.5
2018-Apr-20 04:30N 37°57' E 023°38'0 0.1
2018-Apr-20 03:59N 37°57' E 023°38'0 0.0
2018-Apr-20 03:30N 37°57' E 023°38'0 0.0
2018-Apr-20 03:00N 37°57' E 023°38'0 0.0
2018-Apr-20 02:30N 37°57' E 023°38'0 0.0
2018-Apr-20 02:00N 37°57' E 023°38'0 0.0
2018-Apr-20 01:30N 37°57' E 023°38'0 0.0
2018-Apr-20 01:00N 37°57' E 023°38'0 0.0
2018-Apr-20 00:29N 37°57' E 023°38'0 0.0
2018-Apr-20 00:00N 37°57' E 023°38'0 0.0
2018-Apr-19 23:30N 37°57' E 023°38'0 0.0
2018-Apr-19 23:00N 37°57' E 023°38'0 0.0
2018-Apr-19 22:30N 37°57' E 023°38'0 0.0
2018-Apr-19 22:00N 37°57' E 023°38'0 0.0
2018-Apr-19 21:30N 37°57' E 023°38'0 0.0
2018-Apr-19 21:00N 37°57' E 023°38'0 0.0
2018-Apr-19 20:30N 37°57' E 023°38'0 0.0
2018-Apr-19 20:00N 37°57' E 023°38'0 0.0
2018-Apr-19 19:30N 37°57' E 023°38'0 0.0
2018-Apr-19 19:00N 37°57' E 023°38'0 0.0
2018-Apr-19 18:30N 37°57' E 023°38'0 0.0
2018-Apr-19 18:00N 37°57' E 023°38'0 0.0
2018-Apr-19 17:30N 37°57' E 023°38'0 0.0
2018-Apr-19 17:00N 37°57' E 023°38'0 0.0
2018-Apr-19 16:29N 37°57' E 023°38'0 0.0
2018-Apr-19 16:00N 37°57' E 023°38'0 0.0
2018-Apr-19 15:30N 37°57' E 023°38'0 0.0
2018-Apr-19 15:00N 37°57' E 023°38'0 0.0
2018-Apr-19 14:30N 37°57' E 023°38'0 0.0
2018-Apr-19 14:00N 37°57' E 023°38'0 0.0
2018-Apr-19 13:30N 37°57' E 023°38'0 0.0
2018-Apr-19 13:00N 37°57' E 023°38'0 0.0
2018-Apr-19 12:30N 37°57' E 023°38'0 0.0
2018-Apr-19 12:00N 37°57' E 023°38'0 0.0
2018-Apr-19 11:30N 37°57' E 023°38'0 0.0
2018-Apr-19 11:00N 37°57' E 023°38'0 0.0
2018-Apr-19 10:30N 37°57' E 023°38'0 0.0
2018-Apr-19 10:00N 37°57' E 023°38'0 0.0
2018-Apr-19 09:30N 37°57' E 023°38'0 0.0
2018-Apr-19 09:00N 37°57' E 023°38'0 0.0
2018-Apr-19 08:30N 37°57' E 023°38'0 0.0
2018-Apr-19 08:00N 37°57' E 023°38'0 0.0
2018-Apr-19 07:30N 37°57' E 023°38'0 0.0
2018-Apr-19 07:00N 37°57' E 023°38'0 0.0
2018-Apr-19 06:30N 37°57' E 023°38'0 0.0
2018-Apr-19 05:58N 37°57' E 023°38'0 0.0
2018-Apr-19 05:30N 37°57' E 023°38'0 0.0
2018-Apr-19 05:00N 37°57' E 023°38'0 0.0
2018-Apr-19 04:30N 37°57' E 023°38'0 0.0
2018-Apr-19 04:00N 37°57' E 023°38'0 0.0
2018-Apr-19 03:30N 37°57' E 023°38'0 0.0
2018-Apr-19 03:00N 37°57' E 023°38'0 0.0
2018-Apr-19 02:30N 37°57' E 023°38'0 0.0
2018-Apr-19 02:00N 37°57' E 023°38'0 0.0
2018-Apr-19 01:30N 37°57' E 023°38'0 0.0
2018-Apr-19 01:00N 37°57' E 023°38'0 0.0
2018-Apr-19 00:30N 37°57' E 023°38'0 0.0
2018-Apr-19 00:00N 37°57' E 023°38'0 0.0
2018-Apr-18 23:30N 37°57' E 023°38'0 0.0
2018-Apr-18 23:00N 37°57' E 023°38'0 0.0
2018-Apr-18 22:30N 37°57' E 023°38'0 0.0
2018-Apr-18 22:00N 37°57' E 023°38'0 0.0
2018-Apr-18 21:30N 37°57' E 023°38'0 0.0
2018-Apr-18 21:00N 37°57' E 023°38'0 0.0
2018-Apr-18 20:30N 37°57' E 023°38'0 0.0
2018-Apr-18 20:00N 37°57' E 023°38'0 0.0
2018-Apr-18 19:30N 37°57' E 023°38'0 0.0
2018-Apr-18 19:00N 37°57' E 023°38'0 0.0
2018-Apr-18 18:30N 37°57' E 023°38'0 0.0
2018-Apr-18 18:00N 37°57' E 023°38'0 0.0
2018-Apr-18 17:30N 37°57' E 023°38'0 0.0
2018-Apr-18 17:00N 37°57' E 023°38'0 0.0
2018-Apr-18 16:30N 37°57' E 023°38'0 0.0
2018-Apr-18 16:00N 37°57' E 023°38'0 0.0
2018-Apr-18 15:30N 37°57' E 023°38'0 0.0
2018-Apr-18 15:00N 37°57' E 023°38'0 0.0
2018-Apr-18 14:30N 37°57' E 023°38'0 0.0
2018-Apr-18 14:00N 37°57' E 023°38'0 0.0
2018-Apr-18 13:30N 37°57' E 023°38'0 0.0
2018-Apr-18 13:00N 37°57' E 023°38'0 0.0
2018-Apr-18 12:30N 37°57' E 023°38'0 0.0
2018-Apr-18 12:00N 37°57' E 023°38'0 0.0
2018-Apr-18 11:30N 37°57' E 023°38'0 0.0
2018-Apr-18 11:00N 37°57' E 023°38'0 0.0
2018-Apr-18 10:30N 37°57' E 023°38'0 0.0
2018-Apr-18 10:00N 37°57' E 023°38'0 0.0
2018-Apr-18 09:30N 37°57' E 023°38'0 0.0
2018-Apr-18 09:00N 37°57' E 023°38'0 0.0
2018-Apr-18 08:30N 37°57' E 023°38'0 0.0
2018-Apr-18 08:00N 37°57' E 023°38'0 0.0
2018-Apr-18 07:30N 37°57' E 023°38'0 0.0
2018-Apr-18 07:00N 37°57' E 023°38'0 0.0
2018-Apr-18 06:30N 37°57' E 023°38'0 0.0
2018-Apr-18 06:00N 37°57' E 023°38'0 0.0
2018-Apr-18 05:30N 37°57' E 023°38'0 0.0
2018-Apr-18 05:00N 37°57' E 023°38'0 0.0
2018-Apr-18 04:30N 37°57' E 023°38'0 0.0
2018-Apr-18 04:00N 37°57' E 023°38'0 0.0
2018-Apr-18 03:30N 37°57' E 023°38'0 0.0
2018-Apr-18 03:00N 37°57' E 023°38'0 0.0
2018-Apr-18 02:30N 37°57' E 023°38'0 0.0
2018-Apr-18 02:00N 37°57' E 023°38'0 0.0
2018-Apr-18 01:30N 37°57' E 023°38'0 0.0
2018-Apr-18 01:00N 37°57' E 023°38'0 0.0
2018-Apr-18 00:30N 37°57' E 023°38'0 0.0
2018-Apr-18 00:00N 37°57' E 023°38'0 0.0
2018-Apr-17 23:30N 37°57' E 023°38'0 0.0
2018-Apr-17 23:00N 37°57' E 023°38'0 0.0
2018-Apr-17 22:30N 37°57' E 023°38'0 0.0
2018-Apr-17 22:00N 37°57' E 023°38'0 0.0
2018-Apr-17 21:30N 37°57' E 023°38'0 0.0
2018-Apr-17 21:00N 37°57' E 023°38'0 0.0
2018-Apr-17 20:30N 37°57' E 023°38'0 0.0
2018-Apr-17 20:00N 37°57' E 023°38'0 0.0
2018-Apr-17 19:30N 37°57' E 023°38'0 0.0
2018-Apr-17 19:00N 37°57' E 023°38'0 0.0
2018-Apr-17 18:30N 37°57' E 023°38'0 0.0
2018-Apr-17 18:00N 37°57' E 023°38'0 0.0
2018-Apr-17 17:30N 37°57' E 023°38'0 0.0
2018-Apr-17 17:00N 37°57' E 023°38'0 0.0
2018-Apr-17 16:30N 37°57' E 023°38'0 0.0
2018-Apr-17 16:00N 37°57' E 023°38'0 0.0
2018-Apr-17 15:30N 37°57' E 023°38'0 0.0
2018-Apr-17 15:00N 37°57' E 023°38'0 0.0
2018-Apr-17 14:30N 37°57' E 023°38'0 0.0
2018-Apr-17 14:00N 37°57' E 023°38'611.8
2018-Apr-17 13:30N 37°52' E 023°33'815.6
2018-Apr-17 13:00N 37°47' E 023°26'2 4.7
2018-Apr-17 12:30N 37°45' E 023°25'3 5.1
2018-Apr-17 12:00N 37°47' E 023°26'815.6
2018-Apr-17 11:31N 37°52' E 023°34'611.4
2018-Apr-17 11:00N 37°57' E 023°38'0 0.0
2018-Apr-17 10:30N 37°57' E 023°38'0 0.0
2018-Apr-17 10:00N 37°57' E 023°38'0 0.0
2018-Apr-17 09:30N 37°57' E 023°38'0 0.0
2018-Apr-17 09:00N 37°57' E 023°38'0 0.0
2018-Apr-17 08:30N 37°57' E 023°38'0 0.0
2018-Apr-17 08:00N 37°57' E 023°38'0 0.0
2018-Apr-17 07:30N 37°57' E 023°38'2 4.9
2018-Apr-17 07:00N 37°55' E 023°36'815.4
2018-Apr-17 06:30N 37°49' E 023°30'611.3
2018-Apr-17 06:00N 37°45' E 023°25'0 0.7
2018-Apr-17 05:30N 37°45' E 023°25'714.1
2018-Apr-17 05:00N 37°50' E 023°31'815.0
2018-Apr-17 04:30N 37°56' E 023°37'2 3.1
2018-Apr-17 04:00N 37°57' E 023°38'0 0.0
2018-Apr-17 03:30N 37°57' E 023°38'0 0.0
2018-Apr-17 03:00N 37°57' E 023°38'0 0.0
2018-Apr-17 02:30N 37°57' E 023°38'0 0.0
2018-Apr-17 02:00N 37°57' E 023°38'0 0.0
2018-Apr-17 01:30N 37°57' E 023°38'0 0.0
2018-Apr-17 01:00N 37°57' E 023°38'0 0.0
2018-Apr-17 00:30N 37°57' E 023°38'0 0.0
2018-Apr-17 00:00N 37°57' E 023°38'0 0.0
2018-Apr-16 23:30N 37°57' E 023°38'0 0.0
2018-Apr-16 23:00N 37°57' E 023°38'0 0.0
2018-Apr-16 22:30N 37°57' E 023°38'0 0.0
2018-Apr-16 22:00N 37°57' E 023°38'0 0.0
2018-Apr-16 21:30N 37°57' E 023°38'0 0.0
2018-Apr-16 21:00N 37°57' E 023°38'0 0.0
2018-Apr-16 20:30N 37°57' E 023°38'0 0.0
2018-Apr-16 20:00N 37°57' E 023°38'0 0.0
2018-Apr-16 19:30N 37°57' E 023°38'0 0.0
2018-Apr-16 19:00N 37°57' E 023°38'0 0.0
2018-Apr-16 18:30N 37°57' E 023°38'0 0.0
2018-Apr-16 18:00N 37°57' E 023°38'0 0.0
2018-Apr-16 17:30N 37°57' E 023°38'0 0.0
2018-Apr-16 17:00N 37°57' E 023°38'0 0.0
2018-Apr-16 16:30N 37°57' E 023°38'0 0.0
2018-Apr-16 16:00N 37°57' E 023°38'0 0.0
2018-Apr-16 15:30N 37°57' E 023°38'0 0.0
2018-Apr-16 15:00N 37°57' E 023°38'0 0.0
2018-Apr-16 14:30N 37°57' E 023°38'0 0.0
2018-Apr-16 14:00N 37°57' E 023°38'0 0.0
2018-Apr-16 13:30N 37°57' E 023°38'0 0.0
2018-Apr-16 13:00N 37°57' E 023°38'0 0.0
2018-Apr-16 12:30N 37°57' E 023°38'0 0.0
2018-Apr-16 12:00N 37°57' E 023°38'0 0.0
2018-Apr-16 11:30N 37°57' E 023°38'2 3.8
2018-Apr-16 11:00N 37°56' E 023°36'815.9
2018-Apr-16 10:30N 37°49' E 023°30'611.9
2018-Apr-16 10:00N 37°45' E 023°25'0 0.0
2018-Apr-16 09:30N 37°45' E 023°25'510.7
2018-Apr-16 09:00N 37°49' E 023°30'815.6
2018-Apr-16 08:30N 37°55' E 023°36'3 5.2
2018-Apr-16 08:00N 37°57' E 023°38'0 0.0
2018-Apr-16 07:30N 37°57' E 023°38'3 6.8
2018-Apr-16 07:00N 37°54' E 023°35'815.3
2018-Apr-16 06:30N 37°49' E 023°29'5 9.5
2018-Apr-16 06:00N 37°45' E 023°25'0 0.1
2018-Apr-16 05:30N 37°45' E 023°25'612.7
2018-Apr-16 05:01N 37°50' E 023°31'815.4
2018-Apr-16 04:31N 37°56' E 023°36'2 0.1
2018-Apr-15 15:55N 37°57' E 023°38'614.4
2018-Apr-15 15:30N 37°52' E 023°33'815.4
2018-Apr-15 15:00N 37°47' E 023°26'2 4.5
2018-Apr-15 14:30N 37°45' E 023°25'0 0.0
2018-Apr-15 14:00N 37°45' E 023°25'2 3.8
2018-Apr-15 13:30N 37°47' E 023°26'815.7
2018-Apr-15 13:00N 37°52' E 023°33'6 3.5
2018-Apr-15 11:21N 37°56' E 023°38'615.3
2018-Apr-15 10:56N 37°51' E 023°33'715.6
2018-Apr-15 10:30N 37°47' E 023°26'2 4.8
2018-Apr-15 10:00N 37°45' E 023°25'0 0.0
2018-Apr-15 09:29N 37°45' E 023°25'510.9
2018-Apr-15 09:00N 37°49' E 023°29'815.6
2018-Apr-15 08:30N 37°55' E 023°36'2 2.2
2018-Apr-15 07:25N 37°56' E 023°38'614.4
2018-Apr-15 07:00N 37°52' E 023°33'815.6
2018-Apr-15 06:30N 37°47' E 023°26'2 4.2
2018-Apr-15 06:01N 37°45' E 023°25'510.3
2018-Apr-15 05:31N 37°49' E 023°29'815.7
2018-Apr-15 05:00N 37°55' E 023°36'3 0.2
2018-Apr-14 13:44N 37°57' E 023°38'312.9
2018-Apr-14 13:31N 37°55' E 023°36'815.5
2018-Apr-14 13:00N 37°49' E 023°29'5 8.2
2018-Apr-14 12:24N 37°45' E 023°25'512.5
2018-Apr-14 12:00N 37°40' E 023°25'9 4.1
2018-Apr-14 09:45N 37°31' E 023°26'414.3
2018-Apr-14 09:31N 37°34' E 023°24'611.7
2018-Apr-14 08:59N 37°40' E 023°25'510.0
2018-Apr-14 08:31N 37°45' E 023°25'510.6
2018-Apr-14 08:00N 37°49' E 023°29'815.6
2018-Apr-14 07:31N 37°55' E 023°36'2 2.4
2018-Apr-14 06:36N 37°56' E 023°38'111.3
2018-Apr-14 06:30N 37°56' E 023°37'815.5
2018-Apr-14 06:01N 37°50' E 023°31'712.7
2018-Apr-14 05:29N 37°45' E 023°25'4 8.6
2018-Apr-14 04:58N 37°40' E 023°25'  
Track history (hours):
 
Tides and Currents Weather Stations Pressure Air Temp Water Temp Dewpoint Dewpoint Depression Visibility Wind Speed Wind Dir Waves Ship Positions

Phivos

Last reported at 2018-Apr-23 21:01 UTC. Time now 2018-Apr-23 21:25 UTC.
Position N 37°57' E 023°38'.

Length 100 m.

MMSI: 237808200.

Date/timePositionNaut miles runAvg speedWind from/ knotsBaromVisibWave heightAir tempDewpointWater temp
2018-Apr-23 21:01N 37°57' E 023°38'0 0.0
2018-Apr-23 20:31N 37°57' E 023°38'0 0.0
2018-Apr-23 20:00N 37°57' E 023°38'0 0.0
2018-Apr-23 19:31N 37°57' E 023°38'0 0.0
2018-Apr-23 19:00N 37°57' E 023°38'0 0.0
2018-Apr-23 18:31N 37°57' E 023°38'0 0.0
2018-Apr-23 18:00N 37°57' E 023°38'0 0.0
2018-Apr-23 17:30N 37°57' E 023°38'0 0.0
2018-Apr-23 17:01N 37°57' E 023°38'0 0.0
2018-Apr-23 16:30N 37°57' E 023°38'0 0.0
2018-Apr-23 16:01N 37°57' E 023°38'0 0.0
2018-Apr-23 15:31N 37°57' E 023°38'0 0.0
2018-Apr-23 15:00N 37°57' E 023°38'0 0.0
2018-Apr-23 14:30N 37°57' E 023°38'0 0.0
2018-Apr-23 14:00N 37°57' E 023°38'0 0.0
2018-Apr-23 13:30N 37°57' E 023°38'0 0.0
2018-Apr-23 13:00N 37°57' E 023°38'0 0.0
2018-Apr-23 12:30N 37°57' E 023°38'0 0.0
2018-Apr-23 12:00N 37°57' E 023°38'0 0.0
2018-Apr-23 11:30N 37°57' E 023°38'2 4.0
2018-Apr-23 11:01N 37°55' E 023°37'815.2
2018-Apr-23 10:30N 37°49' E 023°30'612.3
2018-Apr-23 10:00N 37°45' E 023°25'0 0.0
2018-Apr-23 09:30N 37°45' E 023°25'1213.2
2018-Apr-23 08:35N 37°54' E 023°35'114.6
2018-Apr-23 08:30N 37°55' E 023°36'2 5.0
2018-Apr-23 08:00N 37°57' E 023°38'0 0.0
2018-Apr-23 07:30N 37°57' E 023°38'3 5.8
2018-Apr-23 07:00N 37°55' E 023°36'815.4
2018-Apr-23 06:30N 37°49' E 023°29'510.3
2018-Apr-23 06:00N 37°45' E 023°25'0 0.6
2018-Apr-23 05:31N 37°45' E 023°25'713.8
2018-Apr-23 05:00N 37°50' E 023°31'815.7
2018-Apr-23 04:31N 37°56' E 023°37'1 2.8
2018-Apr-23 04:00N 37°57' E 023°39'0 0.0
2018-Apr-23 03:30N 37°57' E 023°39'0 0.0
2018-Apr-23 03:00N 37°57' E 023°38'0 0.0
2018-Apr-23 02:30N 37°57' E 023°38'0 0.0
2018-Apr-23 02:00N 37°57' E 023°38'0 0.0
2018-Apr-23 01:30N 37°57' E 023°39'0 0.0
2018-Apr-23 01:00N 37°57' E 023°39'0 0.0
2018-Apr-23 00:30N 37°57' E 023°39'0 0.0
2018-Apr-23 00:00N 37°57' E 023°39'0 0.0
2018-Apr-22 23:30N 37°57' E 023°39'0 0.0
2018-Apr-22 23:00N 37°57' E 023°39'0 0.0
2018-Apr-22 22:30N 37°57' E 023°39'0 0.0
2018-Apr-22 22:00N 37°57' E 023°38'0 0.0
2018-Apr-22 21:30N 37°57' E 023°39'0 0.0
2018-Apr-22 21:00N 37°57' E 023°39'0 0.0
2018-Apr-22 20:30N 37°57' E 023°39'0 0.0
2018-Apr-22 20:00N 37°57' E 023°39'0 0.0
2018-Apr-22 19:30N 37°57' E 023°39'0 0.0
2018-Apr-22 19:00N 37°57' E 023°39'0 0.0
2018-Apr-22 18:30N 37°57' E 023°39'0 0.0
2018-Apr-22 18:00N 37°57' E 023°39'5 9.1
2018-Apr-22 17:30N 37°53' E 023°34'815.5
2018-Apr-22 17:00N 37°48' E 023°28'4 7.3
2018-Apr-22 16:31N 37°45' E 023°25'0 0.0
2018-Apr-22 16:01N 37°45' E 023°25'2 4.2
2018-Apr-22 15:30N 37°47' E 023°26'815.7
2018-Apr-22 15:01N 37°52' E 023°33'612.4
2018-Apr-22 14:30N 37°57' E 023°38'2 3.9
2018-Apr-22 14:01N 37°56' E 023°36'815.6
2018-Apr-22 13:31N 37°50' E 023°30'612.2
2018-Apr-22 13:00N 37°45' E 023°25'0 0.9
2018-Apr-22 12:30N 37°44' E 023°25'1111.7
2018-Apr-22 11:34N 37°33' E 023°24'115.8
2018-Apr-22 11:30N 37°32' E 023°25'2 2.3
2018-Apr-22 10:34N 37°30' E 023°26'114.9
2018-Apr-22 10:30N 37°31' E 023°25'610.8
2018-Apr-22 09:59N 37°37' E 023°25'815.7
2018-Apr-22 09:31N 37°44' E 023°25'3 5.5
2018-Apr-22 09:00N 37°47' E 023°26'815.5
2018-Apr-22 08:31N 37°52' E 023°33'612.7
2018-Apr-22 08:00N 37°57' E 023°38'0 0.0
2018-Apr-22 07:30N 37°57' E 023°38'0 0.0
2018-Apr-22 07:00N 37°57' E 023°38'0 0.0
2018-Apr-22 06:30N 37°57' E 023°38'0 0.0
2018-Apr-22 06:00N 37°57' E 023°38'0 0.0
2018-Apr-22 05:30N 37°57' E 023°38'0 0.0
2018-Apr-22 05:00N 37°57' E 023°38'0 0.0
2018-Apr-22 04:30N 37°57' E 023°38'0 0.0
2018-Apr-22 04:00N 37°57' E 023°38'0 0.0
2018-Apr-22 03:30N 37°57' E 023°38'0 0.0
2018-Apr-22 03:00N 37°57' E 023°38'0 0.0
2018-Apr-22 02:30N 37°57' E 023°38'0 0.0
2018-Apr-22 02:00N 37°57' E 023°38'0 0.0
2018-Apr-22 01:30N 37°57' E 023°38'0 0.0
2018-Apr-22 01:00N 37°57' E 023°38'0 0.0
2018-Apr-22 00:30N 37°57' E 023°38'0 0.0
2018-Apr-22 00:00N 37°57' E 023°38'0 0.0
2018-Apr-21 23:30N 37°57' E 023°38'0 0.0
2018-Apr-21 23:00N 37°57' E 023°38'0 0.0
2018-Apr-21 22:30N 37°57' E 023°38'0 0.0
2018-Apr-21 22:00N 37°57' E 023°38'0 0.0
2018-Apr-21 21:30N 37°57' E 023°38'0 0.0
2018-Apr-21 21:00N 37°57' E 023°38'0 0.0
2018-Apr-21 20:30N 37°57' E 023°38'0 0.0
2018-Apr-21 20:00N 37°57' E 023°38'0 0.0
2018-Apr-21 19:30N 37°57' E 023°38'0 0.0
2018-Apr-21 19:00N 37°57' E 023°38'0 0.0
2018-Apr-21 18:30N 37°57' E 023°38'0 0.0
2018-Apr-21 18:00N 37°57' E 023°38'0 0.0
2018-Apr-21 17:30N 37°57' E 023°38'0 0.0
2018-Apr-21 17:00N 37°57' E 023°38'0 0.0
2018-Apr-21 16:30N 37°57' E 023°38'0 0.0
2018-Apr-21 16:00N 37°57' E 023°38'0 0.0
2018-Apr-21 15:30N 37°57' E 023°38'0 0.0
2018-Apr-21 15:00N 37°57' E 023°38'0 0.0
2018-Apr-21 14:30N 37°57' E 023°38'0 0.0
2018-Apr-21 14:00N 37°57' E 023°38'3 6.3
2018-Apr-21 13:30N 37°54' E 023°36'715.0
2018-Apr-21 13:00N 37°49' E 023°29'510.3
2018-Apr-21 12:30N 37°45' E 023°25'4 7.3
2018-Apr-21 12:00N 37°41' E 023°25'811.8
2018-Apr-21 11:22N 37°33' E 023°24'3 2.4
2018-Apr-21 09:59N 37°30' E 023°26'5 9.3
2018-Apr-21 09:25N 37°36' E 023°25'715.9
2018-Apr-21 09:00N 37°42' E 023°25'3 5.2
2018-Apr-21 08:30N 37°45' E 023°25'612.0
2018-Apr-21 08:00N 37°49' E 023°30'815.8
2018-Apr-21 07:30N 37°55' E 023°37'2 3.9
2018-Apr-21 07:00N 37°57' E 023°38'3 6.8
2018-Apr-21 06:30N 37°54' E 023°36'815.0
2018-Apr-21 06:00N 37°49' E 023°29'5 9.9
2018-Apr-21 05:31N 37°45' E 023°25'5 9.4
2018-Apr-21 05:00N 37°40' E 023°25'6 9.9
2018-Apr-21 04:23N 37°34' E 023°24'4 0.3
2018-Apr-20 17:25N 37°30' E 023°26'6 7.9
2018-Apr-20 16:38N 37°37' E 023°25'215.3
2018-Apr-20 16:29N 37°39' E 023°25'612.5
2018-Apr-20 16:00N 37°45' E 023°25'3 5.1
2018-Apr-20 15:30N 37°47' E 023°27'815.8
2018-Apr-20 15:00N 37°53' E 023°34'611.0
2018-Apr-20 14:30N 37°57' E 023°38'0 0.0
2018-Apr-20 14:00N 37°57' E 023°38'0 0.0
2018-Apr-20 13:30N 37°57' E 023°38'0 0.0
2018-Apr-20 13:00N 37°57' E 023°38'0 0.0
2018-Apr-20 12:30N 37°57' E 023°38'0 0.0
2018-Apr-20 12:00N 37°57' E 023°38'0 0.0
2018-Apr-20 11:30N 37°57' E 023°38'0 0.0
2018-Apr-20 11:00N 37°57' E 023°38'0 0.0
2018-Apr-20 10:30N 37°57' E 023°38'0 0.0
2018-Apr-20 10:00N 37°57' E 023°38'0 0.0
2018-Apr-20 09:30N 37°57' E 023°38'0 0.0
2018-Apr-20 09:00N 37°57' E 023°38'0 0.0
2018-Apr-20 08:30N 37°57' E 023°38'0 0.0
2018-Apr-20 08:00N 37°57' E 023°38'0 0.2
2018-Apr-20 07:30N 37°57' E 023°38'612.0
2018-Apr-20 07:00N 37°52' E 023°33'815.4
2018-Apr-20 06:31N 37°47' E 023°26'2 4.5
2018-Apr-20 06:00N 37°45' E 023°25'2 3.6
2018-Apr-20 05:30N 37°46' E 023°26'815.3
2018-Apr-20 05:00N 37°51' E 023°33'713.5
2018-Apr-20 04:30N 37°57' E 023°38'0 0.1
2018-Apr-20 03:59N 37°57' E 023°38'0 0.0
2018-Apr-20 03:30N 37°57' E 023°38'0 0.0
2018-Apr-20 03:00N 37°57' E 023°38'0 0.0
2018-Apr-20 02:30N 37°57' E 023°38'0 0.0
2018-Apr-20 02:00N 37°57' E 023°38'0 0.0
2018-Apr-20 01:30N 37°57' E 023°38'0 0.0
2018-Apr-20 01:00N 37°57' E 023°38'0 0.0
2018-Apr-20 00:29N 37°57' E 023°38'0 0.0
2018-Apr-20 00:00N 37°57' E 023°38'0 0.0
2018-Apr-19 23:30N 37°57' E 023°38'0 0.0
2018-Apr-19 23:00N 37°57' E 023°38'0 0.0
2018-Apr-19 22:30N 37°57' E 023°38'0 0.0
2018-Apr-19 22:00N 37°57' E 023°38'0 0.0
2018-Apr-19 21:30N 37°57' E 023°38'0 0.0
2018-Apr-19 21:00N 37°57' E 023°38'0 0.0
2018-Apr-19 20:30N 37°57' E 023°38'0 0.0
2018-Apr-19 20:00N 37°57' E 023°38'0 0.0
2018-Apr-19 19:30N 37°57' E 023°38'0 0.0
2018-Apr-19 19:00N 37°57' E 023°38'0 0.0
2018-Apr-19 18:30N 37°57' E 023°38'0 0.0
2018-Apr-19 18:00N 37°57' E 023°38'0 0.0
2018-Apr-19 17:30N 37°57' E 023°38'0 0.0
2018-Apr-19 17:00N 37°57' E 023°38'0 0.0
2018-Apr-19 16:29N 37°57' E 023°38'0 0.0
2018-Apr-19 16:00N 37°57' E 023°38'0 0.0
2018-Apr-19 15:30N 37°57' E 023°38'0 0.0
2018-Apr-19 15:00N 37°57' E 023°38'0 0.0
2018-Apr-19 14:30N 37°57' E 023°38'0 0.0
2018-Apr-19 14:00N 37°57' E 023°38'0 0.0
2018-Apr-19 13:30N 37°57' E 023°38'0 0.0
2018-Apr-19 13:00N 37°57' E 023°38'0 0.0
2018-Apr-19 12:30N 37°57' E 023°38'0 0.0
2018-Apr-19 12:00N 37°57' E 023°38'0 0.0
2018-Apr-19 11:30N 37°57' E 023°38'0 0.0
2018-Apr-19 11:00N 37°57' E 023°38'0 0.0
2018-Apr-19 10:30N 37°57' E 023°38'0 0.0
2018-Apr-19 10:00N 37°57' E 023°38'0 0.0
2018-Apr-19 09:30N 37°57' E 023°38'0 0.0
2018-Apr-19 09:00N 37°57' E 023°38'0 0.0
2018-Apr-19 08:30N 37°57' E 023°38'0 0.0
2018-Apr-19 08:00N 37°57' E 023°38'0 0.0
2018-Apr-19 07:30N 37°57' E 023°38'0 0.0
2018-Apr-19 07:00N 37°57' E 023°38'0 0.0
2018-Apr-19 06:30N 37°57' E 023°38'0 0.0
2018-Apr-19 05:58N 37°57' E 023°38'0 0.0
2018-Apr-19 05:30N 37°57' E 023°38'0 0.0
2018-Apr-19 05:00N 37°57' E 023°38'0 0.0
2018-Apr-19 04:30N 37°57' E 023°38'0 0.0
2018-Apr-19 04:00N 37°57' E 023°38'0 0.0
2018-Apr-19 03:30N 37°57' E 023°38'0 0.0
2018-Apr-19 03:00N 37°57' E 023°38'0 0.0
2018-Apr-19 02:30N 37°57' E 023°38'0 0.0
2018-Apr-19 02:00N 37°57' E 023°38'0 0.0
2018-Apr-19 01:30N 37°57' E 023°38'0 0.0
2018-Apr-19 01:00N 37°57' E 023°38'0 0.0
2018-Apr-19 00:30N 37°57' E 023°38'0 0.0
2018-Apr-19 00:00N 37°57' E 023°38'0 0.0
2018-Apr-18 23:30N 37°57' E 023°38'0 0.0
2018-Apr-18 23:00N 37°57' E 023°38'0 0.0
2018-Apr-18 22:30N 37°57' E 023°38'0 0.0
2018-Apr-18 22:00N 37°57' E 023°38'0 0.0
2018-Apr-18 21:30N 37°57' E 023°38'0 0.0
2018-Apr-18 21:00N 37°57' E 023°38'0 0.0
2018-Apr-18 20:30N 37°57' E 023°38'0 0.0
2018-Apr-18 20:00N 37°57' E 023°38'0 0.0
2018-Apr-18 19:30N 37°57' E 023°38'0 0.0
2018-Apr-18 19:00N 37°57' E 023°38'0 0.0
2018-Apr-18 18:30N 37°57' E 023°38'0 0.0
2018-Apr-18 18:00N 37°57' E 023°38'0 0.0
2018-Apr-18 17:30N 37°57' E 023°38'0 0.0
2018-Apr-18 17:00N 37°57' E 023°38'0 0.0
2018-Apr-18 16:30N 37°57' E 023°38'0 0.0
2018-Apr-18 16:00N 37°57' E 023°38'0 0.0
2018-Apr-18 15:30N 37°57' E 023°38'0 0.0
2018-Apr-18 15:00N 37°57' E 023°38'0 0.0
2018-Apr-18 14:30N 37°57' E 023°38'0 0.0
2018-Apr-18 14:00N 37°57' E 023°38'0 0.0
2018-Apr-18 13:30N 37°57' E 023°38'0 0.0
2018-Apr-18 13:00N 37°57' E 023°38'0 0.0
2018-Apr-18 12:30N 37°57' E 023°38'0 0.0
2018-Apr-18 12:00N 37°57' E 023°38'0 0.0
2018-Apr-18 11:30N 37°57' E 023°38'0 0.0
2018-Apr-18 11:00N 37°57' E 023°38'0 0.0
2018-Apr-18 10:30N 37°57' E 023°38'0 0.0
2018-Apr-18 10:00N 37°57' E 023°38'0 0.0
2018-Apr-18 09:30N 37°57' E 023°38'0 0.0
2018-Apr-18 09:00N 37°57' E 023°38'0 0.0
2018-Apr-18 08:30N 37°57' E 023°38'0 0.0
2018-Apr-18 08:00N 37°57' E 023°38'0 0.0
2018-Apr-18 07:30N 37°57' E 023°38'0 0.0
2018-Apr-18 07:00N 37°57' E 023°38'0 0.0
2018-Apr-18 06:30N 37°57' E 023°38'0 0.0
2018-Apr-18 06:00N 37°57' E 023°38'0 0.0
2018-Apr-18 05:30N 37°57' E 023°38'0 0.0
2018-Apr-18 05:00N 37°57' E 023°38'0 0.0
2018-Apr-18 04:30N 37°57' E 023°38'0 0.0
2018-Apr-18 04:00N 37°57' E 023°38'0 0.0
2018-Apr-18 03:30N 37°57' E 023°38'0 0.0
2018-Apr-18 03:00N 37°57' E 023°38'0 0.0
2018-Apr-18 02:30N 37°57' E 023°38'0 0.0
2018-Apr-18 02:00N 37°57' E 023°38'0 0.0
2018-Apr-18 01:30N 37°57' E 023°38'0 0.0
2018-Apr-18 01:00N 37°57' E 023°38'0 0.0
2018-Apr-18 00:30N 37°57' E 023°38'0 0.0
2018-Apr-18 00:00N 37°57' E 023°38'0 0.0
2018-Apr-17 23:30N 37°57' E 023°38'0 0.0
2018-Apr-17 23:00N 37°57' E 023°38'0 0.0
2018-Apr-17 22:30N 37°57' E 023°38'0 0.0
2018-Apr-17 22:00N 37°57' E 023°38'0 0.0
2018-Apr-17 21:30N 37°57' E 023°38'0 0.0
2018-Apr-17 21:00N 37°57' E 023°38'0 0.0
2018-Apr-17 20:30N 37°57' E 023°38'0 0.0
2018-Apr-17 20:00N 37°57' E 023°38'0 0.0
2018-Apr-17 19:30N 37°57' E 023°38'0 0.0
2018-Apr-17 19:00N 37°57' E 023°38'0 0.0
2018-Apr-17 18:30N 37°57' E 023°38'0 0.0
2018-Apr-17 18:00N 37°57' E 023°38'0 0.0
2018-Apr-17 17:30N 37°57' E 023°38'0 0.0
2018-Apr-17 17:00N 37°57' E 023°38'0 0.0
2018-Apr-17 16:30N 37°57' E 023°38'0 0.0
2018-Apr-17 16:00N 37°57' E 023°38'0 0.0
2018-Apr-17 15:30N 37°57' E 023°38'0 0.0
2018-Apr-17 15:00N 37°57' E 023°38'0 0.0
2018-Apr-17 14:30N 37°57' E 023°38'0 0.0
2018-Apr-17 14:00N 37°57' E 023°38'611.8
2018-Apr-17 13:30N 37°52' E 023°33'815.6
2018-Apr-17 13:00N 37°47' E 023°26'2 4.7
2018-Apr-17 12:30N 37°45' E 023°25'3 5.1
2018-Apr-17 12:00N 37°47' E 023°26'815.6
2018-Apr-17 11:31N 37°52' E 023°34'611.4
2018-Apr-17 11:00N 37°57' E 023°38'0 0.0
2018-Apr-17 10:30N 37°57' E 023°38'0 0.0
2018-Apr-17 10:00N 37°57' E 023°38'0 0.0
2018-Apr-17 09:30N 37°57' E 023°38'0 0.0
2018-Apr-17 09:00N 37°57' E 023°38'0 0.0
2018-Apr-17 08:30N 37°57' E 023°38'0 0.0
2018-Apr-17 08:00N 37°57' E 023°38'0 0.0
2018-Apr-17 07:30N 37°57' E 023°38'2 4.9
2018-Apr-17 07:00N 37°55' E 023°36'815.4
2018-Apr-17 06:30N 37°49' E 023°30'611.3
2018-Apr-17 06:00N 37°45' E 023°25'0 0.7
2018-Apr-17 05:30N 37°45' E 023°25'714.1
2018-Apr-17 05:00N 37°50' E 023°31'815.0
2018-Apr-17 04:30N 37°56' E 023°37'2 3.1
2018-Apr-17 04:00N 37°57' E 023°38'0 0.0
2018-Apr-17 03:30N 37°57' E 023°38'0 0.0
2018-Apr-17 03:00N 37°57' E 023°38'0 0.0
2018-Apr-17 02:30N 37°57' E 023°38'0 0.0
2018-Apr-17 02:00N 37°57' E 023°38'0 0.0
2018-Apr-17 01:30N 37°57' E 023°38'0 0.0
2018-Apr-17 01:00N 37°57' E 023°38'0 0.0
2018-Apr-17 00:30N 37°57' E 023°38'0 0.0
2018-Apr-17 00:00N 37°57' E 023°38'0 0.0
2018-Apr-16 23:30N 37°57' E 023°38'0 0.0
2018-Apr-16 23:00N 37°57' E 023°38'0 0.0
2018-Apr-16 22:30N 37°57' E 023°38'0 0.0
2018-Apr-16 22:00N 37°57' E 023°38'0 0.0
2018-Apr-16 21:30N 37°57' E 023°38'0 0.0
2018-Apr-16 21:00N 37°57' E 023°38'0 0.0
2018-Apr-16 20:30N 37°57' E 023°38'0 0.0
2018-Apr-16 20:00N 37°57' E 023°38'0 0.0
2018-Apr-16 19:30N 37°57' E 023°38'0 0.0
2018-Apr-16 19:00N 37°57' E 023°38'0 0.0
2018-Apr-16 18:30N 37°57' E 023°38'0 0.0
2018-Apr-16 18:00N 37°57' E 023°38'0 0.0
2018-Apr-16 17:30N 37°57' E 023°38'0 0.0
2018-Apr-16 17:00N 37°57' E 023°38'0 0.0
2018-Apr-16 16:30N 37°57' E 023°38'0 0.0
2018-Apr-16 16:00N 37°57' E 023°38'0 0.0
2018-Apr-16 15:30N 37°57' E 023°38'0 0.0
2018-Apr-16 15:00N 37°57' E 023°38'0 0.0
2018-Apr-16 14:30N 37°57' E 023°38'0 0.0
2018-Apr-16 14:00N 37°57' E 023°38'0 0.0
2018-Apr-16 13:30N 37°57' E 023°38'0 0.0
2018-Apr-16 13:00N 37°57' E 023°38'0 0.0
2018-Apr-16 12:30N 37°57' E 023°38'0 0.0
2018-Apr-16 12:00N 37°57' E 023°38'0 0.0
2018-Apr-16 11:30N 37°57' E 023°38'2 3.8
2018-Apr-16 11:00N 37°56' E 023°36'815.9
2018-Apr-16 10:30N 37°49' E 023°30'611.9
2018-Apr-16 10:00N 37°45' E 023°25'0 0.0
2018-Apr-16 09:30N 37°45' E 023°25'510.7
2018-Apr-16 09:00N 37°49' E 023°30'815.6
2018-Apr-16 08:30N 37°55' E 023°36'3 5.2
2018-Apr-16 08:00N 37°57' E 023°38'0 0.0
2018-Apr-16 07:30N 37°57' E 023°38'3 6.8
2018-Apr-16 07:00N 37°54' E 023°35'815.3
2018-Apr-16 06:30N 37°49' E 023°29'5 9.5
2018-Apr-16 06:00N 37°45' E 023°25'0 0.1
2018-Apr-16 05:30N 37°45' E 023°25'612.7
2018-Apr-16 05:01N 37°50' E 023°31'815.4
2018-Apr-16 04:31N 37°56' E 023°36'2 0.1
2018-Apr-15 15:55N 37°57' E 023°38'614.4
2018-Apr-15 15:30N 37°52' E 023°33'815.4
2018-Apr-15 15:00N 37°47' E 023°26'2 4.5
2018-Apr-15 14:30N 37°45' E 023°25'0 0.0
2018-Apr-15 14:00N 37°45' E 023°25'2 3.8
2018-Apr-15 13:30N 37°47' E 023°26'815.7
2018-Apr-15 13:00N 37°52' E 023°33'6 3.5
2018-Apr-15 11:21N 37°56' E 023°38'615.3
2018-Apr-15 10:56N 37°51' E 023°33'715.6
2018-Apr-15 10:30N 37°47' E 023°26'2 4.8
2018-Apr-15 10:00N 37°45' E 023°25'0 0.0
2018-Apr-15 09:29N 37°45' E 023°25'510.9
2018-Apr-15 09:00N 37°49' E 023°29'815.6
2018-Apr-15 08:30N 37°55' E 023°36'2 2.2
2018-Apr-15 07:25N 37°56' E 023°38'614.4
2018-Apr-15 07:00N 37°52' E 023°33'815.6
2018-Apr-15 06:30N 37°47' E 023°26'2 4.2
2018-Apr-15 06:01N 37°45' E 023°25'510.3
2018-Apr-15 05:31N 37°49' E 023°29'815.7
2018-Apr-15 05:00N 37°55' E 023°36'3 0.2
2018-Apr-14 13:44N 37°57' E 023°38'312.9
2018-Apr-14 13:31N 37°55' E 023°36'815.5
2018-Apr-14 13:00N 37°49' E 023°29'5 8.2
2018-Apr-14 12:24N 37°45' E 023°25'512.5
2018-Apr-14 12:00N 37°40' E 023°25'9 4.1
2018-Apr-14 09:45N 37°31' E 023°26'414.3
2018-Apr-14 09:31N 37°34' E 023°24'611.7
2018-Apr-14 08:59N 37°40' E 023°25'510.0
2018-Apr-14 08:31N 37°45' E 023°25'510.6
2018-Apr-14 08:00N 37°49' E 023°29'815.6
2018-Apr-14 07:31N 37°55' E 023°36'2 2.4
2018-Apr-14 06:36N 37°56' E 023°38'111.3
2018-Apr-14 06:30N 37°56' E 023°37'815.5
2018-Apr-14 06:01N 37°50' E 023°31'712.7
2018-Apr-14 05:29N 37°45' E 023°25'4 8.6
2018-Apr-14 04:58N 37°40' E 023°25'  

Dump ship's entire track history